createdAt,value
2023-02-12T00:00:03.977Z,56.13
2023-02-12T00:02:41.787Z,56.28
2023-02-12T00:05:08.658Z,56.16
2023-02-12T00:07:35.299Z,56.64
2023-02-12T00:10:02.267Z,56.23
2023-02-12T00:12:28.982Z,56.45
2023-02-12T00:14:55.747Z,56.40
2023-02-12T00:17:22.411Z,56.72
2023-02-12T00:19:49.252Z,56.83
2023-02-12T00:22:15.937Z,56.86
2023-02-12T00:24:42.750Z,56.89
2023-02-12T00:27:09.419Z,56.92
2023-02-12T00:29:37.384Z,56.86
2023-02-12T00:32:05.504Z,56.40
2023-02-12T00:34:32.388Z,56.68
2023-02-12T00:36:59.073Z,56.57
2023-02-12T00:39:26.821Z,56.33
2023-02-12T00:41:53.509Z,56.59
2023-02-12T00:44:20.275Z,56.81
2023-02-12T00:46:47.042Z,56.70
2023-02-12T00:49:16.086Z,56.81
2023-02-12T00:51:42.771Z,56.65
2023-02-12T00:54:10.665Z,56.46
2023-02-12T00:56:37.383Z,56.55
2023-02-12T00:59:04.169Z,56.43
2023-02-12T01:01:30.875Z,56.74
2023-02-12T01:03:57.729Z,56.35
2023-02-12T01:06:26.305Z,56.34
2023-02-12T01:08:53.684Z,56.33
2023-02-12T01:11:20.853Z,56.47
2023-02-12T01:13:48.608Z,56.42
2023-02-12T01:16:20.912Z,56.16
2023-02-12T01:18:47.922Z,56.20
2023-02-12T01:21:17.391Z,56.27
2023-02-12T01:23:44.438Z,56.57
2023-02-12T01:26:12.195Z,56.04
2023-02-12T01:28:39.703Z,55.91
2023-02-12T01:31:10.836Z,56.31
2023-02-12T01:33:37.759Z,56.19
2023-02-12T01:36:04.602Z,56.24
2023-02-12T01:38:31.687Z,56.10
2023-02-12T01:41:06.528Z,56.08
2023-02-12T01:43:34.811Z,56.33
2023-02-12T01:46:02.017Z,56.16
2023-02-12T01:48:32.833Z,56.05
2023-02-12T01:50:59.563Z,56.25
2023-02-12T01:53:31.549Z,55.74
2023-02-12T01:55:59.809Z,55.99
2023-02-12T01:58:28.866Z,55.95
2023-02-12T02:00:55.818Z,55.98
2023-02-12T02:03:23.730Z,55.81
2023-02-12T02:05:58.606Z,55.72
2023-02-12T02:08:26.205Z,55.83
2023-02-12T02:10:52.916Z,55.67
2023-02-12T02:13:38.331Z,56.07
2023-02-12T02:16:15.843Z,55.59
2023-02-12T02:19:31.053Z,55.45
2023-02-12T02:22:22.475Z,55.80
2023-02-12T02:25:15.268Z,55.68
2023-02-12T02:28:03.740Z,55.41
2023-02-12T02:30:55.859Z,55.39
2023-02-12T02:33:55.191Z,55.60
2023-02-12T02:36:54.173Z,55.43
2023-02-12T02:40:06.103Z,55.50
2023-02-12T02:42:37.722Z,55.90
2023-02-12T02:45:14.768Z,55.92
2023-02-12T02:47:45.053Z,55.91
2023-02-12T02:50:20.716Z,55.77
2023-02-12T02:52:51.152Z,56.11
2023-02-12T02:55:19.689Z,55.96
2023-02-12T02:57:51.478Z,56.35
2023-02-12T03:00:33.882Z,56.50
2023-02-12T03:03:05.835Z,56.32
2023-02-12T03:05:36.281Z,56.37
2023-02-12T03:08:13.915Z,56.61
2023-02-12T03:10:45.999Z,57.01
2023-02-12T03:13:18.721Z,57.09
2023-02-12T03:15:53.547Z,56.98
2023-02-12T03:18:24.817Z,57.07
2023-02-12T03:21:00.724Z,56.69
2023-02-12T03:23:38.670Z,56.79
2023-02-12T03:26:10.092Z,56.31
2023-02-12T03:28:38.736Z,56.26
2023-02-12T03:31:37.982Z,56.15
2023-02-12T03:34:57.425Z,56.45
2023-02-12T03:37:50.794Z,56.13
2023-02-12T03:40:21.058Z,55.96
2023-02-12T03:43:04.606Z,55.75
2023-02-12T03:45:49.508Z,56.00
2023-02-12T03:48:23.596Z,55.79
2023-02-12T03:51:11.820Z,55.74
2023-02-12T03:53:38.532Z,55.85
2023-02-12T03:56:13.838Z,55.48
2023-02-12T03:58:41.478Z,55.71
2023-02-12T04:01:08.883Z,55.84
2023-02-12T04:03:35.705Z,55.30
2023-02-12T04:06:02.403Z,55.60
2023-02-12T04:08:29.663Z,55.87
2023-02-12T04:11:11.903Z,55.34
2023-02-12T04:14:00.029Z,55.79
2023-02-12T04:16:45.396Z,55.37
2023-02-12T04:19:18.329Z,55.41
2023-02-12T04:21:54.867Z,55.66
2023-02-12T04:24:45.019Z,55.56
2023-02-12T04:27:23.117Z,55.25
2023-02-12T04:30:08.204Z,55.50
2023-02-12T04:32:51.083Z,55.35
2023-02-12T04:35:26.492Z,55.39
2023-02-12T04:38:22.515Z,55.29
2023-02-12T04:40:49.569Z,55.35
2023-02-12T04:43:28.504Z,55.24
2023-02-12T04:45:55.622Z,55.48
2023-02-12T04:48:22.726Z,55.21
2023-02-12T04:50:49.532Z,55.31
2023-02-12T04:53:16.270Z,55.18
2023-02-12T04:55:43.328Z,55.23
2023-02-12T04:58:10.126Z,55.42
2023-02-12T05:00:37.097Z,55.41
2023-02-12T05:03:04.177Z,55.03
2023-02-12T05:05:31.044Z,55.15
2023-02-12T05:07:57.766Z,54.82
2023-02-12T05:10:24.544Z,55.00
2023-02-12T05:12:55.433Z,54.91
2023-02-12T05:15:22.965Z,54.77
2023-02-12T05:17:49.755Z,55.06
2023-02-12T05:20:16.719Z,54.71
2023-02-12T05:22:43.571Z,54.73
2023-02-12T05:25:10.445Z,54.66
2023-02-12T05:27:37.409Z,55.00
2023-02-12T05:30:05.659Z,54.70
2023-02-12T05:32:32.749Z,54.77
2023-02-12T05:34:59.438Z,54.62
2023-02-12T05:37:26.328Z,54.77
2023-02-12T05:39:53.881Z,55.11
2023-02-12T05:42:20.692Z,54.71
2023-02-12T05:44:47.375Z,54.73
2023-02-12T05:47:14.228Z,55.07
2023-02-12T05:49:40.959Z,54.98
2023-02-12T05:52:07.739Z,55.02
2023-02-12T05:54:34.441Z,55.36
2023-02-12T05:57:01.261Z,54.84
2023-02-12T05:59:27.955Z,55.00
2023-02-12T06:01:54.933Z,55.14
2023-02-12T06:04:25.454Z,55.29
2023-02-12T06:06:53.111Z,55.02
2023-02-12T06:09:20.119Z,54.81
2023-02-12T06:11:46.885Z,54.97
2023-02-12T06:14:18.810Z,55.03
2023-02-12T06:16:50.029Z,54.57
2023-02-12T06:19:17.112Z,54.89
2023-02-12T06:21:44.278Z,54.93
2023-02-12T06:24:15.352Z,54.68
2023-02-12T06:26:42.379Z,54.34
2023-02-12T06:29:09.606Z,54.48
2023-02-12T06:31:37.666Z,54.34
2023-02-12T06:34:07.248Z,54.40
2023-02-12T06:36:36.413Z,54.34
2023-02-12T06:39:03.600Z,54.75
2023-02-12T06:41:30.341Z,54.68
2023-02-12T06:43:57.119Z,54.75
2023-02-12T06:46:24.217Z,54.35
2023-02-12T06:48:55.158Z,54.66
2023-02-12T06:51:23.563Z,54.67
2023-02-12T06:53:52.274Z,54.66
2023-02-12T06:56:20.243Z,54.55
2023-02-12T06:58:48.750Z,54.63
2023-02-12T07:01:21.630Z,54.51
2023-02-12T07:03:50.743Z,54.46
2023-02-12T07:06:18.085Z,54.38
2023-02-12T07:08:50.545Z,54.74
2023-02-12T07:11:32.342Z,54.94
2023-02-12T07:14:03.563Z,54.50
2023-02-12T07:16:31.349Z,54.92
2023-02-12T07:19:01.402Z,54.91
2023-02-12T07:21:35.452Z,55.28
2023-02-12T07:24:03.638Z,55.41
2023-02-12T07:26:38.678Z,55.21
2023-02-12T07:29:09.372Z,55.41
2023-02-12T07:31:43.461Z,55.56
2023-02-12T07:34:19.416Z,55.68
2023-02-12T07:36:48.622Z,55.84
2023-02-12T07:39:15.332Z,55.63
2023-02-12T07:41:46.069Z,55.65
2023-02-12T07:44:20.319Z,55.81
2023-02-12T07:46:58.462Z,56.36
2023-02-12T07:49:29.591Z,56.77
2023-02-12T07:51:57.414Z,57.69
2023-02-12T07:54:24.105Z,58.89
2023-02-12T07:56:52.204Z,59.88
2023-02-12T07:59:19.640Z,59.99
2023-02-12T08:01:51.262Z,59.52
2023-02-12T08:04:20.797Z,59.93
2023-02-12T08:06:49.533Z,60.76
2023-02-12T08:09:22.165Z,61.23
2023-02-12T08:11:49.144Z,61.53
2023-02-12T08:14:18.513Z,61.35
2023-02-12T08:16:46.983Z,61.39
2023-02-12T08:19:20.134Z,61.70
2023-02-12T08:21:52.882Z,62.21
2023-02-12T08:24:22.012Z,62.08
2023-02-12T08:26:48.865Z,62.09
2023-02-12T08:29:17.863Z,62.44
2023-02-12T08:31:46.554Z,62.86
2023-02-12T08:34:20.451Z,62.58
2023-02-12T08:36:48.587Z,62.69
2023-02-12T08:39:16.052Z,62.75
2023-02-12T08:41:42.858Z,62.90
2023-02-12T08:44:10.271Z,63.38
2023-02-12T08:46:39.334Z,64.05
2023-02-12T08:49:10.237Z,64.03
2023-02-12T08:51:38.126Z,64.00
2023-02-12T08:54:07.518Z,65.07
2023-02-12T08:56:35.102Z,65.40
2023-02-12T08:59:04.184Z,65.53
2023-02-12T09:01:35.850Z,65.26
2023-02-12T09:04:02.964Z,66.56
2023-02-12T09:06:32.282Z,66.65
2023-02-12T09:08:59.049Z,66.88
2023-02-12T09:11:30.780Z,66.78
2023-02-12T09:14:02.465Z,66.98
2023-02-12T09:16:31.340Z,66.83
2023-02-12T09:18:58.258Z,66.06
2023-02-12T09:21:25.276Z,65.85
2023-02-12T09:23:52.585Z,65.58
2023-02-12T09:26:22.109Z,65.65
2023-02-12T09:28:50.240Z,66.10
2023-02-12T09:31:20.911Z,65.72
2023-02-12T09:33:51.155Z,65.72
2023-02-12T09:36:19.512Z,65.80
2023-02-12T09:38:46.285Z,65.86
2023-02-12T09:41:22.205Z,65.78
2023-02-12T09:43:53.911Z,65.71
2023-02-12T09:46:26.735Z,65.89
2023-02-12T09:49:11.444Z,65.54
2023-02-12T09:51:40.280Z,65.22
2023-02-12T09:54:16.060Z,65.06
2023-02-12T09:56:54.373Z,64.91
2023-02-12T09:59:40.816Z,65.34
2023-02-12T10:02:18.374Z,64.93
2023-02-12T10:05:00.187Z,64.88
2023-02-12T10:07:37.910Z,64.48
2023-02-12T10:10:42.231Z,64.44
2023-02-12T10:13:18.240Z,63.72
2023-02-12T10:15:52.850Z,63.75
2023-02-12T10:18:38.408Z,63.50
2023-02-12T10:21:38.092Z,63.53
2023-02-12T10:24:36.785Z,63.55
2023-02-12T10:27:09.949Z,63.23
2023-02-12T10:29:38.230Z,63.28
2023-02-12T10:32:10.339Z,62.50
2023-02-12T10:34:37.775Z,62.66
2023-02-12T10:37:12.411Z,61.99
2023-02-12T10:39:43.991Z,62.12
2023-02-12T10:42:35.062Z,61.88
2023-02-12T10:45:01.987Z,61.55
2023-02-12T10:47:28.671Z,61.52
2023-02-12T10:50:01.703Z,60.69
2023-02-12T10:52:48.662Z,60.68
2023-02-12T10:55:30.499Z,60.27
2023-02-12T10:57:59.399Z,59.23
2023-02-12T11:00:30.289Z,58.93
2023-02-12T11:03:12.620Z,59.06
2023-02-12T11:05:41.509Z,58.30
2023-02-12T11:08:11.941Z,58.56
2023-02-12T11:10:40.836Z,58.54
2023-02-12T11:13:27.168Z,58.53
2023-02-12T11:15:55.579Z,58.11
2023-02-12T11:18:28.250Z,58.26
2023-02-12T11:20:58.460Z,58.07
2023-02-12T11:23:32.364Z,58.00
2023-02-12T11:25:59.170Z,57.85
2023-02-12T11:28:26.108Z,57.97
2023-02-12T11:30:56.149Z,57.68
2023-02-12T11:33:24.272Z,57.73
2023-02-12T11:36:10.870Z,57.55
2023-02-12T11:38:49.381Z,57.71
2023-02-12T11:41:39.842Z,57.54
2023-02-12T11:44:19.543Z,57.58
2023-02-12T11:46:52.338Z,57.33
2023-02-12T11:49:20.630Z,56.98
2023-02-12T11:51:47.687Z,57.02
2023-02-12T11:54:20.623Z,56.80
2023-02-12T11:56:48.297Z,57.10
2023-02-12T11:59:31.504Z,56.84
2023-02-12T12:02:20.609Z,56.67
2023-02-12T12:04:47.269Z,56.50
2023-02-12T12:07:28.491Z,56.05
2023-02-12T12:10:01.917Z,56.23
2023-02-12T12:12:31.695Z,56.42
2023-02-12T12:15:18.540Z,56.27
2023-02-12T12:18:09.466Z,56.25
2023-02-12T12:20:45.891Z,56.45
2023-02-12T12:23:16.651Z,55.60
2023-02-12T12:25:47.742Z,55.84
2023-02-12T12:28:29.031Z,55.59
2023-02-12T12:31:10.311Z,55.46
2023-02-12T12:33:40.110Z,55.39
2023-02-12T12:36:18.576Z,55.50
2023-02-12T12:38:45.166Z,55.70
2023-02-12T12:41:30.652Z,55.22
2023-02-12T12:44:19.923Z,54.83
2023-02-12T12:46:56.163Z,55.31
2023-02-12T12:49:32.232Z,55.00
2023-02-12T12:52:01.613Z,54.86
2023-02-12T12:54:44.875Z,54.50
2023-02-12T12:57:30.436Z,54.28
2023-02-12T13:00:15.812Z,54.21
2023-02-12T13:02:54.471Z,53.85
2023-02-12T13:05:24.169Z,54.20
2023-02-12T13:07:50.738Z,54.14
2023-02-12T13:10:17.505Z,53.91
2023-02-12T13:13:03.019Z,53.98
2023-02-12T13:15:32.878Z,53.57
2023-02-12T13:18:02.407Z,53.63
2023-02-12T13:20:29.022Z,53.40
2023-02-12T13:23:01.673Z,53.67
2023-02-12T13:25:32.761Z,53.62
2023-02-12T13:27:59.890Z,53.29
2023-02-12T13:30:46.881Z,53.69
2023-02-12T13:33:17.000Z,53.16
2023-02-12T13:35:46.604Z,53.02
2023-02-12T13:38:25.414Z,53.20
2023-02-12T13:40:55.446Z,52.44
2023-02-12T13:43:30.732Z,53.06
2023-02-12T13:46:21.983Z,53.12
2023-02-12T13:48:58.396Z,52.69
2023-02-12T13:51:46.594Z,52.84
2023-02-12T13:54:31.601Z,52.64
2023-02-12T13:57:01.316Z,52.73
2023-02-12T13:59:39.997Z,52.59
2023-02-12T14:02:12.610Z,52.46
2023-02-12T14:04:44.169Z,51.96
2023-02-12T14:07:13.581Z,52.37
2023-02-12T14:09:43.591Z,52.17
2023-02-12T14:12:15.568Z,52.37
2023-02-12T14:14:48.069Z,52.77
2023-02-12T14:17:30.853Z,52.26
2023-02-12T14:20:09.196Z,52.55
2023-02-12T14:22:35.928Z,52.18
2023-02-12T14:25:15.069Z,52.35
2023-02-12T14:27:42.855Z,52.27
2023-02-12T14:30:09.905Z,52.47
2023-02-12T14:32:58.254Z,52.69
2023-02-12T14:35:31.191Z,52.56
2023-02-12T14:38:03.639Z,53.02
2023-02-12T14:40:44.494Z,53.16
2023-02-12T14:43:54.993Z,53.27
2023-02-12T14:46:24.872Z,53.50
2023-02-12T14:48:51.760Z,53.64
2023-02-12T14:51:45.054Z,53.99
2023-02-12T14:54:18.326Z,54.28
2023-02-12T14:56:47.954Z,54.54
2023-02-12T14:59:20.716Z,55.04
2023-02-12T15:01:48.503Z,55.04
2023-02-12T15:04:21.857Z,55.63
2023-02-12T15:07:08.297Z,55.50
2023-02-12T15:09:45.184Z,56.07
2023-02-12T15:12:26.762Z,56.25
2023-02-12T15:15:04.863Z,56.08
2023-02-12T15:17:35.256Z,56.79
2023-02-12T15:20:08.406Z,57.29
2023-02-12T15:22:38.230Z,57.72
2023-02-12T15:25:38.479Z,57.66
2023-02-12T15:28:19.680Z,57.98
2023-02-12T15:30:46.660Z,58.43
2023-02-12T15:33:27.149Z,58.87
2023-02-12T15:35:54.319Z,58.88
2023-02-12T15:38:24.995Z,59.63
2023-02-12T15:40:59.688Z,59.71
2023-02-12T15:43:28.953Z,60.42
2023-02-12T15:45:56.145Z,60.32
2023-02-12T15:48:29.681Z,60.29
2023-02-12T15:51:05.321Z,60.91
2023-02-12T15:53:32.854Z,60.72
2023-02-12T15:56:00.592Z,61.00
2023-02-12T15:58:29.710Z,61.12
2023-02-12T16:01:05.506Z,61.58
2023-02-12T16:03:34.931Z,61.60
2023-02-12T16:06:16.882Z,62.45
2023-02-12T16:08:45.902Z,62.71
2023-02-12T16:11:14.137Z,62.72
2023-02-12T16:13:45.906Z,62.33
2023-02-12T16:16:12.650Z,62.81
2023-02-12T16:18:41.291Z,63.43
2023-02-12T16:21:23.516Z,62.90
2023-02-12T16:23:51.362Z,63.19
2023-02-12T16:26:26.168Z,63.26
2023-02-12T16:28:56.628Z,63.86
2023-02-12T16:31:26.567Z,63.83
2023-02-12T16:33:56.172Z,64.42
2023-02-12T16:36:22.949Z,64.32
2023-02-12T16:39:02.783Z,64.50
2023-02-12T16:41:32.422Z,65.18
2023-02-12T16:44:02.177Z,65.26
2023-02-12T16:46:31.048Z,65.56
2023-02-12T16:48:59.102Z,65.97
2023-02-12T16:51:29.596Z,65.82
2023-02-12T16:53:57.974Z,65.79
2023-02-12T16:56:31.608Z,65.45
2023-02-12T16:59:00.191Z,66.29
2023-02-12T17:01:37.335Z,65.82
2023-02-12T17:04:09.052Z,66.21
2023-02-12T17:06:35.805Z,66.44
2023-02-12T17:09:02.518Z,66.92
2023-02-12T17:11:29.647Z,66.57
2023-02-12T17:13:56.754Z,66.61
2023-02-12T17:16:32.257Z,66.94
2023-02-12T17:19:00.238Z,67.04
2023-02-12T17:21:38.047Z,67.08
2023-02-12T17:24:22.319Z,67.34
2023-02-12T17:26:53.245Z,67.44
2023-02-12T17:29:21.852Z,67.18
2023-02-12T17:31:49.372Z,67.44
2023-02-12T17:34:16.691Z,67.12
2023-02-12T17:36:43.432Z,67.67
2023-02-12T17:39:12.692Z,67.92
2023-02-12T17:41:40.646Z,68.17
2023-02-12T17:44:07.817Z,68.19
2023-02-12T17:46:34.782Z,68.51
2023-02-12T17:49:01.648Z,68.23
2023-02-12T17:51:28.416Z,68.62
2023-02-12T17:53:55.199Z,68.32
2023-02-12T17:56:25.707Z,68.48
2023-02-12T18:01:48.502Z,69.14
2023-02-12T18:04:15.545Z,68.97
2023-02-12T18:18:57.527Z,66.90
2023-02-12T18:21:24.267Z,66.92
2023-02-12T18:23:53.330Z,66.76
2023-02-12T18:26:20.324Z,66.26
2023-02-12T18:28:47.021Z,66.01
2023-02-12T18:31:14.010Z,66.04
2023-02-12T18:33:41.260Z,65.53
2023-02-12T18:36:11.300Z,65.19
2023-02-12T18:38:39.109Z,64.99
2023-02-12T18:41:08.040Z,65.31
2023-02-12T18:43:36.666Z,65.05
2023-02-12T18:46:07.589Z,64.89
2023-02-12T18:48:34.348Z,64.57
2023-02-12T18:51:05.721Z,64.74
2023-02-12T18:53:32.589Z,64.30
2023-02-12T18:55:59.832Z,64.36
2023-02-12T18:58:28.209Z,63.76
2023-02-12T19:00:55.209Z,63.87
2023-02-12T19:03:22.334Z,63.85
2023-02-12T19:05:49.399Z,63.24
2023-02-12T19:08:16.752Z,63.38
2023-02-12T19:10:43.996Z,63.26
2023-02-12T19:13:11.135Z,62.91
2023-02-12T19:15:39.645Z,62.74
2023-02-12T19:18:07.200Z,62.30
2023-02-12T19:20:34.059Z,62.13
2023-02-12T19:23:01.085Z,62.41
2023-02-12T19:25:27.769Z,62.10
2023-02-12T19:27:54.620Z,62.27
2023-02-12T19:30:26.187Z,61.72
2023-02-12T19:33:00.399Z,62.06
2023-02-12T19:35:27.288Z,61.93
2023-02-12T19:37:54.162Z,61.97
2023-02-12T19:40:21.016Z,62.23
2023-02-12T19:42:47.752Z,61.76
2023-02-12T19:45:14.695Z,61.60
2023-02-12T19:47:41.454Z,61.91
2023-02-12T19:50:08.660Z,61.58
2023-02-12T19:52:36.594Z,61.64
2023-02-12T19:55:03.355Z,61.65
2023-02-12T19:57:30.057Z,61.74
2023-02-12T19:59:56.846Z,61.62
2023-02-12T20:02:23.648Z,61.65
2023-02-12T20:04:50.490Z,61.37
2023-02-12T20:07:17.218Z,61.06
2023-02-12T20:09:44.327Z,61.08
2023-02-12T20:12:30.087Z,61.12
2023-02-12T20:15:02.710Z,61.06
2023-02-12T20:17:30.447Z,61.17
2023-02-12T20:19:58.233Z,61.15
2023-02-12T20:22:25.547Z,61.43
2023-02-12T20:24:53.088Z,61.19
2023-02-12T20:27:20.114Z,61.22
2023-02-12T20:29:46.812Z,61.04
2023-02-12T20:32:13.662Z,61.26
2023-02-12T20:34:50.470Z,61.05
2023-02-12T20:37:18.928Z,60.55
2023-02-12T20:39:45.626Z,60.37
2023-02-12T20:42:12.699Z,60.26
2023-02-12T20:44:39.510Z,60.29
2023-02-12T20:47:06.584Z,59.89
2023-02-12T20:49:34.090Z,60.34
2023-02-12T20:52:01.314Z,60.29
2023-02-12T20:54:28.500Z,60.17
2023-02-12T20:56:55.395Z,60.22
2023-02-12T20:59:22.094Z,59.44
2023-02-12T21:01:49.106Z,59.36
2023-02-12T21:04:17.954Z,59.44
2023-02-12T21:06:45.887Z,59.24
2023-02-12T21:09:14.188Z,59.31
2023-02-12T21:11:43.102Z,59.19
2023-02-12T21:14:25.997Z,58.80
2023-02-12T21:16:55.447Z,58.95
2023-02-12T21:19:22.673Z,58.59
2023-02-12T21:21:50.134Z,58.78
2023-02-12T21:24:21.899Z,58.68
2023-02-12T21:26:50.444Z,58.55
2023-02-12T21:29:17.493Z,58.72
2023-02-12T21:31:47.824Z,58.71
2023-02-12T21:34:20.556Z,58.63
2023-02-12T21:36:49.870Z,58.56
2023-02-12T21:39:24.900Z,58.98
2023-02-12T21:41:54.491Z,58.52
2023-02-12T21:44:22.300Z,58.91
2023-02-12T21:46:49.152Z,58.91
2023-02-12T21:49:24.675Z,59.07
2023-02-12T21:51:53.181Z,58.71
2023-02-12T21:54:20.412Z,58.63
2023-02-12T21:56:48.620Z,58.83
2023-02-12T21:59:16.401Z,58.97
2023-02-12T22:01:47.065Z,58.52
2023-02-12T22:04:14.006Z,58.99
2023-02-12T22:06:42.927Z,58.96
2023-02-12T22:09:10.931Z,59.11
2023-02-12T22:11:39.018Z,59.10
2023-02-12T22:14:07.304Z,59.15
2023-02-12T22:16:35.185Z,59.15
2023-02-12T22:19:02.965Z,59.23
2023-02-12T22:21:31.699Z,59.71
2023-02-12T22:24:01.064Z,59.96
2023-02-12T22:26:29.116Z,60.09
2023-02-12T22:28:58.132Z,60.47
2023-02-12T22:31:29.332Z,60.57
2023-02-12T22:33:58.902Z,60.47
2023-02-12T22:36:26.608Z,60.53
2023-02-12T22:38:55.108Z,60.60
2023-02-12T22:41:21.958Z,60.50
2023-02-12T22:43:49.189Z,60.33
2023-02-12T22:46:16.508Z,60.11
2023-02-12T22:48:43.377Z,59.72
2023-02-12T22:51:19.596Z,60.00
2023-02-12T22:53:46.754Z,59.81
2023-02-12T22:56:13.560Z,59.43
2023-02-12T22:58:40.417Z,59.58
2023-02-12T23:01:07.168Z,59.71
2023-02-12T23:03:34.227Z,59.47
2023-02-12T23:06:02.609Z,59.58
2023-02-12T23:08:29.408Z,59.24
2023-02-12T23:10:56.268Z,59.14
2023-02-12T23:13:29.573Z,58.90
2023-02-12T23:15:57.056Z,58.78
2023-02-12T23:18:23.954Z,58.61
2023-02-12T23:20:51.934Z,58.58
2023-02-12T23:23:20.063Z,58.38
2023-02-12T23:25:47.135Z,58.35
2023-02-12T23:28:14.453Z,58.62
2023-02-12T23:30:41.226Z,58.67
2023-02-12T23:33:08.017Z,58.29
2023-02-12T23:35:34.736Z,58.61
2023-02-12T23:38:01.486Z,58.62
2023-02-12T23:40:28.225Z,58.54
2023-02-12T23:42:54.974Z,58.69
2023-02-12T23:45:21.626Z,58.22
2023-02-12T23:47:48.370Z,58.26
2023-02-12T23:50:15.229Z,58.39
2023-02-12T23:52:42.116Z,58.13
2023-02-12T23:55:09.336Z,58.44
2023-02-12T23:57:36.280Z,58.33
